sensor_id;sensor_type;location;lat;lon;timestamp;temperature;humidity
28548;DHT22;15750;49.600;8.746;2022-12-07T00:01:22;14.50;49.70
28548;DHT22;15750;49.600;8.746;2022-12-07T00:04:12;14.50;49.60
28548;DHT22;15750;49.600;8.746;2022-12-07T00:07:00;14.50;49.60
28548;DHT22;15750;49.600;8.746;2022-12-07T00:09:49;14.40;49.60
28548;DHT22;15750;49.600;8.746;2022-12-07T00:12:37;14.40;49.60
28548;DHT22;15750;49.600;8.746;2022-12-07T00:15:24;14.40;49.70
28548;DHT22;15750;49.600;8.746;2022-12-07T00:18:11;14.40;49.70
28548;DHT22;15750;49.600;8.746;2022-12-07T00:21:01;14.40;49.60
28548;DHT22;15750;49.600;8.746;2022-12-07T00:23:50;14.40;49.50
28548;DHT22;15750;49.600;8.746;2022-12-07T00:26:41;14.50;49.60
28548;DHT22;15750;49.600;8.746;2022-12-07T00:29:29;14.40;49.60
28548;DHT22;15750;49.600;8.746;2022-12-07T00:32:16;14.40;49.60
28548;DHT22;15750;49.600;8.746;2022-12-07T00:35:04;14.40;49.70
28548;DHT22;15750;49.600;8.746;2022-12-07T00:37:52;14.40;49.70
28548;DHT22;15750;49.600;8.746;2022-12-07T00:40:39;14.50;49.70
28548;DHT22;15750;49.600;8.746;2022-12-07T00:43:28;14.50;49.70
28548;DHT22;15750;49.600;8.746;2022-12-07T00:46:17;14.50;49.60
28548;DHT22;15750;49.600;8.746;2022-12-07T00:49:05;14.40;49.60
28548;DHT22;15750;49.600;8.746;2022-12-07T00:51:52;14.40;49.60
28548;DHT22;15750;49.600;8.746;2022-12-07T00:54:40;14.40;49.70
28548;DHT22;15750;49.600;8.746;2022-12-07T00:57:27;14.40;49.80
28548;DHT22;15750;49.600;8.746;2022-12-07T01:00:18;14.40;49.70
28548;DHT22;15750;49.600;8.746;2022-12-07T01:03:06;14.40;49.80
28548;DHT22;15750;49.600;8.746;2022-12-07T01:05:55;14.40;49.70
28548;DHT22;15750;49.600;8.746;2022-12-07T01:08:43;14.40;49.70
28548;DHT22;15750;49.600;8.746;2022-12-07T01:11:30;14.40;49.70
28548;DHT22;15750;49.600;8.746;2022-12-07T01:14:18;14.40;49.70
28548;DHT22;15750;49.600;8.746;2022-12-07T01:17:06;14.40;49.70
28548;DHT22;15750;49.600;8.746;2022-12-07T01:19:54;14.30;49.70
28548;DHT22;15750;49.600;8.746;2022-12-07T01:22:42;14.30;49.70
28548;DHT22;15750;49.600;8.746;2022-12-07T01:25:30;14.30;49.70
28548;DHT22;15750;49.600;8.746;2022-12-07T01:28:17;14.30;49.80
28548;DHT22;15750;49.600;8.746;2022-12-07T01:31:06;14.30;49.80
28548;DHT22;15750;49.600;8.746;2022-12-07T01:33:58;14.30;49.80
28548;DHT22;15750;49.600;8.746;2022-12-07T01:36:46;14.30;49.80
28548;DHT22;15750;49.600;8.746;2022-12-07T01:39:33;14.30;49.80
28548;DHT22;15750;49.600;8.746;2022-12-07T01:42:20;14.30;49.80
28548;DHT22;15750;49.600;8.746;2022-12-07T01:45:37;14.30;49.80
28548;DHT22;15750;49.600;8.746;2022-12-07T01:48:28;14.30;49.70
28548;DHT22;15750;49.600;8.746;2022-12-07T01:51:19;14.40;49.80
28548;DHT22;15750;49.600;8.746;2022-12-07T01:54:06;14.40;49.80
28548;DHT22;15750;49.600;8.746;2022-12-07T01:56:55;14.40;49.70
28548;DHT22;15750;49.600;8.746;2022-12-07T01:59:45;14.40;49.70
28548;DHT22;15750;49.600;8.746;2022-12-07T02:02:36;14.30;49.70
28548;DHT22;15750;49.600;8.746;2022-12-07T02:05:25;14.30;49.70
28548;DHT22;15750;49.600;8.746;2022-12-07T02:08:15;14.30;49.70
28548;DHT22;15750;49.600;8.746;2022-12-07T02:11:04;14.30;49.70
28548;DHT22;15750;49.600;8.746;2022-12-07T02:13:54;14.30;49.70
28548;DHT22;15750;49.600;8.746;2022-12-07T02:16:49;14.30;49.70
28548;DHT22;15750;49.600;8.746;2022-12-07T02:20:00;14.30;49.60
28548;DHT22;15750;49.600;8.746;2022-12-07T02:30:04;14.30;49.50
28548;DHT22;15750;49.600;8.746;2022-12-07T02:32:58;14.30;49.50
28548;DHT22;15750;49.600;8.746;2022-12-07T02:35:54;14.30;49.50
28548;DHT22;15750;49.600;8.746;2022-12-07T02:38:50;14.30;49.50
28548;DHT22;15750;49.600;8.746;2022-12-07T02:41:44;14.30;49.50
28548;DHT22;15750;49.600;8.746;2022-12-07T02:44:34;14.30;49.40
28548;DHT22;15750;49.600;8.746;2022-12-07T02:47:25;14.30;49.50
28548;DHT22;15750;49.600;8.746;2022-12-07T02:50:13;14.30;49.50
28548;DHT22;15750;49.600;8.746;2022-12-07T02:53:01;14.30;49.50
28548;DHT22;15750;49.600;8.746;2022-12-07T02:55:49;14.20;49.50
28548;DHT22;15750;49.600;8.746;2022-12-07T02:58:47;14.20;49.50
28548;DHT22;15750;49.600;8.746;2022-12-07T03:01:44;14.20;49.50
28548;DHT22;15750;49.600;8.746;2022-12-07T03:04:44;14.20;49.40
28548;DHT22;15750;49.600;8.746;2022-12-07T03:07:36;14.20;49.50
28548;DHT22;15750;49.600;8.746;2022-12-07T03:10:32;14.20;49.50
28548;DHT22;15750;49.600;8.746;2022-12-07T03:13:25;14.20;49.50
28548;DHT22;15750;49.600;8.746;2022-12-07T03:16:18;14.20;49.50
28548;DHT22;15750;49.600;8.746;2022-12-07T03:19:10;14.20;49.50
28548;DHT22;15750;49.600;8.746;2022-12-07T03:22:05;14.20;49.60
28548;DHT22;15750;49.600;8.746;2022-12-07T03:24:58;14.20;49.60
28548;DHT22;15750;49.600;8.746;2022-12-07T03:27:49;14.20;49.70
28548;DHT22;15750;49.600;8.746;2022-12-07T03:30:44;14.20;49.70
28548;DHT22;15750;49.600;8.746;2022-12-07T03:33:38;14.20;49.70
28548;DHT22;15750;49.600;8.746;2022-12-07T03:36:30;14.20;49.70
28548;DHT22;15750;49.600;8.746;2022-12-07T03:39:25;14.20;49.80
28548;DHT22;15750;49.600;8.746;2022-12-07T03:42:14;14.20;49.80
28548;DHT22;15750;49.600;8.746;2022-12-07T03:45:02;14.20;49.80
28548;DHT22;15750;49.600;8.746;2022-12-07T03:47:54;14.20;49.70
28548;DHT22;15750;49.600;8.746;2022-12-07T03:50:52;14.20;49.80
28548;DHT22;15750;49.600;8.746;2022-12-07T03:53:46;14.20;49.80
28548;DHT22;15750;49.600;8.746;2022-12-07T03:56:39;14.20;49.70
28548;DHT22;15750;49.600;8.746;2022-12-07T03:59:28;14.20;49.70
28548;DHT22;15750;49.600;8.746;2022-12-07T04:02:15;14.20;49.60
28548;DHT22;15750;49.600;8.746;2022-12-07T04:05:03;14.20;49.60
28548;DHT22;15750;49.600;8.746;2022-12-07T04:07:51;14.20;49.60
28548;DHT22;15750;49.600;8.746;2022-12-07T04:10:38;14.20;49.60
28548;DHT22;15750;49.600;8.746;2022-12-07T04:13:27;14.20;49.60
28548;DHT22;15750;49.600;8.746;2022-12-07T04:16:14;14.30;49.70
28548;DHT22;15750;49.600;8.746;2022-12-07T04:19:01;14.30;49.70
28548;DHT22;15750;49.600;8.746;2022-12-07T04:21:49;14.30;49.70
28548;DHT22;15750;49.600;8.746;2022-12-07T04:24:36;14.30;49.80
28548;DHT22;15750;49.600;8.746;2022-12-07T04:27:23;14.20;49.70
28548;DHT22;15750;49.600;8.746;2022-12-07T04:30:12;14.30;49.80
28548;DHT22;15750;49.600;8.746;2022-12-07T04:32:59;14.30;49.80
28548;DHT22;15750;49.600;8.746;2022-12-07T04:35:46;14.30;49.80
28548;DHT22;15750;49.600;8.746;2022-12-07T04:38:33;14.30;49.90
28548;DHT22;15750;49.600;8.746;2022-12-07T04:41:21;14.30;49.80
28548;DHT22;15750;49.600;8.746;2022-12-07T04:44:13;14.30;49.80
28548;DHT22;15750;49.600;8.746;2022-12-07T04:47:03;14.30;49.80
28548;DHT22;15750;49.600;8.746;2022-12-07T04:49:50;14.30;49.70
28548;DHT22;15750;49.600;8.746;2022-12-07T04:52:37;14.30;49.70
28548;DHT22;15750;49.600;8.746;2022-12-07T04:55:24;14.30;49.70
28548;DHT22;15750;49.600;8.746;2022-12-07T04:58:12;14.30;49.70
28548;DHT22;15750;49.600;8.746;2022-12-07T05:00:59;14.30;49.70
28548;DHT22;15750;49.600;8.746;2022-12-07T05:03:48;14.30;49.70
28548;DHT22;15750;49.600;8.746;2022-12-07T05:06:35;14.30;49.70
28548;DHT22;15750;49.600;8.746;2022-12-07T05:09:23;14.30;49.80
28548;DHT22;15750;49.600;8.746;2022-12-07T05:12:10;14.30;49.80
28548;DHT22;15750;49.600;8.746;2022-12-07T05:14:57;14.30;49.70
28548;DHT22;15750;49.600;8.746;2022-12-07T05:17:44;14.30;49.70
28548;DHT22;15750;49.600;8.746;2022-12-07T05:20:33;14.30;49.60
28548;DHT22;15750;49.600;8.746;2022-12-07T05:23:27;14.30;49.70
28548;DHT22;15750;49.600;8.746;2022-12-07T05:26:14;14.20;49.70
28548;DHT22;15750;49.600;8.746;2022-12-07T05:29:01;14.20;49.70
28548;DHT22;15750;49.600;8.746;2022-12-07T05:31:48;14.20;49.70
28548;DHT22;15750;49.600;8.746;2022-12-07T05:34:35;14.20;49.70
28548;DHT22;15750;49.600;8.746;2022-12-07T05:37:23;14.20;49.70
28548;DHT22;15750;49.600;8.746;2022-12-07T05:40:12;14.20;49.80
28548;DHT22;15750;49.600;8.746;2022-12-07T05:42:59;14.20;49.80
28548;DHT22;15750;49.600;8.746;2022-12-07T05:45:49;14.20;49.70
28548;DHT22;15750;49.600;8.746;2022-12-07T05:48:36;14.20;49.70
28548;DHT22;15750;49.600;8.746;2022-12-07T05:51:23;14.20;49.80
28548;DHT22;15750;49.600;8.746;2022-12-07T05:54:12;14.20;49.80
28548;DHT22;15750;49.600;8.746;2022-12-07T05:56:59;14.20;49.70
28548;DHT22;15750;49.600;8.746;2022-12-07T05:59:46;14.20;49.70
28548;DHT22;15750;49.600;8.746;2022-12-07T06:02:33;14.20;49.90
28548;DHT22;15750;49.600;8.746;2022-12-07T06:05:21;14.20;49.80
28548;DHT22;15750;49.600;8.746;2022-12-07T06:08:08;14.20;49.80
28548;DHT22;15750;49.600;8.746;2022-12-07T06:10:57;14.20;49.80
28548;DHT22;15750;49.600;8.746;2022-12-07T06:13:58;14.20;49.60
28548;DHT22;15750;49.600;8.746;2022-12-07T06:16:46;14.20;49.60
28548;DHT22;15750;49.600;8.746;2022-12-07T06:19:33;14.20;49.60
28548;DHT22;15750;49.600;8.746;2022-12-07T06:22:21;14.20;49.60
28548;DHT22;15750;49.600;8.746;2022-12-07T06:25:08;14.20;49.60
28548;DHT22;15750;49.600;8.746;2022-12-07T06:27:56;14.20;49.60
28548;DHT22;15750;49.600;8.746;2022-12-07T06:30:44;14.20;49.60
28548;DHT22;15750;49.600;8.746;2022-12-07T06:33:31;14.20;49.60
28548;DHT22;15750;49.600;8.746;2022-12-07T06:36:18;14.20;49.60
28548;DHT22;15750;49.600;8.746;2022-12-07T06:39:11;14.20;49.60
28548;DHT22;15750;49.600;8.746;2022-12-07T06:41:58;14.20;49.60
28548;DHT22;15750;49.600;8.746;2022-12-07T06:44:47;14.20;49.60
28548;DHT22;15750;49.600;8.746;2022-12-07T06:47:34;14.20;49.60
28548;DHT22;15750;49.600;8.746;2022-12-07T06:50:27;14.20;49.70
28548;DHT22;15750;49.600;8.746;2022-12-07T06:53:14;14.20;49.70
28548;DHT22;15750;49.600;8.746;2022-12-07T06:56:02;14.20;49.70
28548;DHT22;15750;49.600;8.746;2022-12-07T06:58:50;14.20;49.70
28548;DHT22;15750;49.600;8.746;2022-12-07T07:01:38;14.20;49.60
28548;DHT22;15750;49.600;8.746;2022-12-07T07:04:07;14.20;49.70
28548;DHT22;15750;49.600;8.746;2022-12-07T07:06:36;14.20;49.80
28548;DHT22;15750;49.600;8.746;2022-12-07T07:09:04;14.20;49.80
28548;DHT22;15750;49.600;8.746;2022-12-07T07:11:33;14.20;49.80
28548;DHT22;15750;49.600;8.746;2022-12-07T07:14:01;14.20;49.70
28548;DHT22;15750;49.600;8.746;2022-12-07T07:16:31;14.20;49.70
28548;DHT22;15750;49.600;8.746;2022-12-07T07:19:01;14.20;49.70
28548;DHT22;15750;49.600;8.746;2022-12-07T07:21:29;14.20;49.60
28548;DHT22;15750;49.600;8.746;2022-12-07T07:23:58;14.20;49.60
28548;DHT22;15750;49.600;8.746;2022-12-07T07:26:26;14.20;49.70
28548;DHT22;15750;49.600;8.746;2022-12-07T07:28:55;14.20;49.70
28548;DHT22;15750;49.600;8.746;2022-12-07T07:31:24;14.20;49.70
28548;DHT22;15750;49.600;8.746;2022-12-07T07:33:52;14.20;49.70
28548;DHT22;15750;49.600;8.746;2022-12-07T07:36:22;14.20;49.60
28548;DHT22;15750;49.600;8.746;2022-12-07T07:38:51;14.20;49.70
28548;DHT22;15750;49.600;8.746;2022-12-07T07:41:20;14.20;49.70
28548;DHT22;15750;49.600;8.746;2022-12-07T07:43:48;14.20;49.70
28548;DHT22;15750;49.600;8.746;2022-12-07T07:46:17;14.20;49.70
28548;DHT22;15750;49.600;8.746;2022-12-07T07:48:46;14.20;49.80
28548;DHT22;15750;49.600;8.746;2022-12-07T07:51:14;14.20;49.70
28548;DHT22;15750;49.600;8.746;2022-12-07T07:53:44;14.20;49.80
28548;DHT22;15750;49.600;8.746;2022-12-07T07:56:13;14.20;49.80
28548;DHT22;15750;49.600;8.746;2022-12-07T07:58:42;14.20;49.70
28548;DHT22;15750;49.600;8.746;2022-12-07T08:01:10;14.20;49.80
28548;DHT22;15750;49.600;8.746;2022-12-07T08:03:40;14.20;49.80
28548;DHT22;15750;49.600;8.746;2022-12-07T08:06:09;14.20;49.90
28548;DHT22;15750;49.600;8.746;2022-12-07T08:08:38;14.20;49.80
28548;DHT22;15750;49.600;8.746;2022-12-07T08:11:08;14.20;49.80
28548;DHT22;15750;49.600;8.746;2022-12-07T08:13:37;14.20;49.80
28548;DHT22;15750;49.600;8.746;2022-12-07T08:16:08;14.20;49.90
28548;DHT22;15750;49.600;8.746;2022-12-07T08:18:39;14.20;50.00
28548;DHT22;15750;49.600;8.746;2022-12-07T08:21:11;14.20;50.00
28548;DHT22;15750;49.600;8.746;2022-12-07T08:23:41;14.20;50.00
28548;DHT22;15750;49.600;8.746;2022-12-07T08:26:13;14.20;50.00
28548;DHT22;15750;49.600;8.746;2022-12-07T08:28:43;14.20;50.00
28548;DHT22;15750;49.600;8.746;2022-12-07T08:31:14;14.20;50.00
28548;DHT22;15750;49.600;8.746;2022-12-07T08:33:45;14.20;50.00
28548;DHT22;15750;49.600;8.746;2022-12-07T08:36:17;14.20;50.00
28548;DHT22;15750;49.600;8.746;2022-12-07T08:38:45;14.20;50.00
28548;DHT22;15750;49.600;8.746;2022-12-07T08:41:36;14.30;50.10
28548;DHT22;15750;49.600;8.746;2022-12-07T08:44:05;14.30;50.10
28548;DHT22;15750;49.600;8.746;2022-12-07T08:46:36;14.30;50.10
28548;DHT22;15750;49.600;8.746;2022-12-07T08:49:09;14.30;50.10
28548;DHT22;15750;49.600;8.746;2022-12-07T08:51:41;14.30;50.20
28548;DHT22;15750;49.600;8.746;2022-12-07T08:54:12;14.30;50.10
28548;DHT22;15750;49.600;8.746;2022-12-07T08:56:45;14.30;50.20
28548;DHT22;15750;49.600;8.746;2022-12-07T08:59:18;14.30;50.20
28548;DHT22;15750;49.600;8.746;2022-12-07T09:01:47;14.30;50.10
28548;DHT22;15750;49.600;8.746;2022-12-07T09:04:16;14.30;50.20
28548;DHT22;15750;49.600;8.746;2022-12-07T09:06:44;14.30;50.20
28548;DHT22;15750;49.600;8.746;2022-12-07T09:09:14;14.30;50.20
28548;DHT22;15750;49.600;8.746;2022-12-07T09:11:44;14.30;50.30
28548;DHT22;15750;49.600;8.746;2022-12-07T09:14:13;14.30;50.20
28548;DHT22;15750;49.600;8.746;2022-12-07T09:16:41;14.30;50.30
28548;DHT22;15750;49.600;8.746;2022-12-07T09:19:10;14.30;50.20
28548;DHT22;15750;49.600;8.746;2022-12-07T09:21:39;14.30;50.20
28548;DHT22;15750;49.600;8.746;2022-12-07T09:24:07;14.40;50.30
28548;DHT22;15750;49.600;8.746;2022-12-07T09:26:36;14.40;50.30
28548;DHT22;15750;49.600;8.746;2022-12-07T09:29:07;14.40;50.30
28548;DHT22;15750;49.600;8.746;2022-12-07T09:31:36;14.40;50.40
28548;DHT22;15750;49.600;8.746;2022-12-07T09:34:05;14.40;50.40
28548;DHT22;15750;49.600;8.746;2022-12-07T09:36:34;14.40;50.40
28548;DHT22;15750;49.600;8.746;2022-12-07T09:39:03;14.40;50.40
28548;DHT22;15750;49.600;8.746;2022-12-07T09:41:32;14.40;50.50
28548;DHT22;15750;49.600;8.746;2022-12-07T09:44:04;14.40;50.50
28548;DHT22;15750;49.600;8.746;2022-12-07T09:46:37;14.40;50.50
28548;DHT22;15750;49.600;8.746;2022-12-07T09:49:12;14.40;50.50
28548;DHT22;15750;49.600;8.746;2022-12-07T09:51:42;14.40;50.40
28548;DHT22;15750;49.600;8.746;2022-12-07T09:54:13;14.40;50.30
28548;DHT22;15750;49.600;8.746;2022-12-07T09:56:43;14.40;50.30
28548;DHT22;15750;49.600;8.746;2022-12-07T09:59:17;14.40;50.30
28548;DHT22;15750;49.600;8.746;2022-12-07T10:01:48;14.40;50.40
28548;DHT22;15750;49.600;8.746;2022-12-07T10:04:20;14.50;50.30
28548;DHT22;15750;49.600;8.746;2022-12-07T10:06:50;14.50;50.40
28548;DHT22;15750;49.600;8.746;2022-12-07T10:09:21;14.50;50.30
28548;DHT22;15750;49.600;8.746;2022-12-07T10:12:03;14.50;50.30
28548;DHT22;15750;49.600;8.746;2022-12-07T10:14:36;14.50;50.30
28548;DHT22;15750;49.600;8.746;2022-12-07T10:17:33;14.50;50.30
28548;DHT22;15750;49.600;8.746;2022-12-07T10:20:19;14.50;50.30
28548;DHT22;15750;49.600;8.746;2022-12-07T10:23:01;14.50;50.40
28548;DHT22;15750;49.600;8.746;2022-12-07T10:25:33;14.50;50.40
28548;DHT22;15750;49.600;8.746;2022-12-07T10:28:11;14.50;50.40
28548;DHT22;15750;49.600;8.746;2022-12-07T10:30:52;14.50;50.40
28548;DHT22;15750;49.600;8.746;2022-12-07T10:33:33;14.50;50.40
28548;DHT22;15750;49.600;8.746;2022-12-07T10:36:17;14.50;50.30
28548;DHT22;15750;49.600;8.746;2022-12-07T10:38:50;14.50;50.40
28548;DHT22;15750;49.600;8.746;2022-12-07T10:41:20;14.50;50.40
28548;DHT22;15750;49.600;8.746;2022-12-07T10:43:52;14.50;50.40
28548;DHT22;15750;49.600;8.746;2022-12-07T10:53:22;14.50;50.60
28548;DHT22;15750;49.600;8.746;2022-12-07T10:56:14;14.50;50.60
28548;DHT22;15750;49.600;8.746;2022-12-07T10:59:04;14.50;50.70
28548;DHT22;15750;49.600;8.746;2022-12-07T11:01:50;14.50;50.60
28548;DHT22;15750;49.600;8.746;2022-12-07T11:04:29;14.50;50.60
28548;DHT22;15750;49.600;8.746;2022-12-07T11:07:06;14.50;50.50
28548;DHT22;15750;49.600;8.746;2022-12-07T11:13:04;14.50;50.70
28548;DHT22;15750;49.600;8.746;2022-12-07T11:15:55;14.50;50.60
28548;DHT22;15750;49.600;8.746;2022-12-07T11:18:41;14.60;50.60
28548;DHT22;15750;49.600;8.746;2022-12-07T11:21:23;14.60;50.70
28548;DHT22;15750;49.600;8.746;2022-12-07T11:24:01;14.60;50.70
28548;DHT22;15750;49.600;8.746;2022-12-07T11:26:56;14.60;50.80
28548;DHT22;15750;49.600;8.746;2022-12-07T11:39:04;14.60;50.70
28548;DHT22;15750;49.600;8.746;2022-12-07T11:41:43;14.60;50.60
28548;DHT22;15750;49.600;8.746;2022-12-07T11:44:24;14.60;50.50
28548;DHT22;15750;49.600;8.746;2022-12-07T11:47:01;14.60;50.60
28548;DHT22;15750;49.600;8.746;2022-12-07T12:12:04;14.60;51.20
28548;DHT22;15750;49.600;8.746;2022-12-07T12:15:16;14.70;51.10
28548;DHT22;15750;49.600;8.746;2022-12-07T12:49:37;14.70;51.00
28548;DHT22;15750;49.600;8.746;2022-12-07T13:01:48;14.80;50.80
28548;DHT22;15750;49.600;8.746;2022-12-07T13:28:15;14.80;50.60
28548;DHT22;15750;49.600;8.746;2022-12-07T13:30:52;14.80;50.70
28548;DHT22;15750;49.600;8.746;2022-12-07T13:33:28;14.70;50.60
28548;DHT22;15750;49.600;8.746;2022-12-07T13:35:58;14.80;50.70
28548;DHT22;15750;49.600;8.746;2022-12-07T13:38:29;14.80;50.70
28548;DHT22;15750;49.600;8.746;2022-12-07T13:41:02;14.80;50.60
28548;DHT22;15750;49.600;8.746;2022-12-07T13:43:44;14.80;50.70
28548;DHT22;15750;49.600;8.746;2022-12-07T13:46:24;14.80;50.60
28548;DHT22;15750;49.600;8.746;2022-12-07T13:48:56;14.80;50.60
28548;DHT22;15750;49.600;8.746;2022-12-07T13:51:26;14.80;50.60
28548;DHT22;15750;49.600;8.746;2022-12-07T13:54:00;14.80;50.60
28548;DHT22;15750;49.600;8.746;2022-12-07T13:56:36;14.80;50.60
28548;DHT22;15750;49.600;8.746;2022-12-07T13:59:13;14.80;50.60
28548;DHT22;15750;49.600;8.746;2022-12-07T14:01:45;14.80;50.70
28548;DHT22;15750;49.600;8.746;2022-12-07T14:04:18;14.80;50.60
28548;DHT22;15750;49.600;8.746;2022-12-07T14:06:49;14.80;50.60
28548;DHT22;15750;49.600;8.746;2022-12-07T14:09:20;14.80;50.60
28548;DHT22;15750;49.600;8.746;2022-12-07T14:11:54;14.80;51.20
28548;DHT22;15750;49.600;8.746;2022-12-07T14:14:28;14.80;50.50
28548;DHT22;15750;49.600;8.746;2022-12-07T14:17:15;14.80;50.40
28548;DHT22;15750;49.600;8.746;2022-12-07T14:19:47;14.80;50.40
28548;DHT22;15750;49.600;8.746;2022-12-07T14:22:38;14.80;50.40
28548;DHT22;15750;49.600;8.746;2022-12-07T14:25:20;14.80;50.40
28548;DHT22;15750;49.600;8.746;2022-12-07T14:27:55;14.80;50.40
28548;DHT22;15750;49.600;8.746;2022-12-07T14:30:28;14.80;50.40
28548;DHT22;15750;49.600;8.746;2022-12-07T14:33:00;14.80;50.40
28548;DHT22;15750;49.600;8.746;2022-12-07T14:35:31;14.80;50.50
28548;DHT22;15750;49.600;8.746;2022-12-07T14:38:01;14.80;50.50
28548;DHT22;15750;49.600;8.746;2022-12-07T14:40:30;14.80;50.50
28548;DHT22;15750;49.600;8.746;2022-12-07T14:43:01;14.80;50.50
28548;DHT22;15750;49.600;8.746;2022-12-07T14:45:33;14.80;50.50
28548;DHT22;15750;49.600;8.746;2022-12-07T14:48:02;14.80;50.50
28548;DHT22;15750;49.600;8.746;2022-12-07T14:50:52;14.80;50.40
28548;DHT22;15750;49.600;8.746;2022-12-07T14:53:46;14.80;50.30
28548;DHT22;15750;49.600;8.746;2022-12-07T14:56:23;14.80;50.30
28548;DHT22;15750;49.600;8.746;2022-12-07T14:58:52;14.80;50.40
28548;DHT22;15750;49.600;8.746;2022-12-07T15:01:23;14.80;50.30
28548;DHT22;15750;49.600;8.746;2022-12-07T15:03:52;14.80;50.30
28548;DHT22;15750;49.600;8.746;2022-12-07T15:06:21;14.80;50.30
28548;DHT22;15750;49.600;8.746;2022-12-07T15:08:50;14.80;50.30
28548;DHT22;15750;49.600;8.746;2022-12-07T15:11:19;14.80;50.30
28548;DHT22;15750;49.600;8.746;2022-12-07T15:13:48;14.80;50.30
28548;DHT22;15750;49.600;8.746;2022-12-07T15:16:39;14.80;50.20
28548;DHT22;15750;49.600;8.746;2022-12-07T15:19:29;14.80;50.10
28548;DHT22;15750;49.600;8.746;2022-12-07T15:21:58;14.80;50.10
28548;DHT22;15750;49.600;8.746;2022-12-07T15:24:27;14.80;49.90
28548;DHT22;15750;49.600;8.746;2022-12-07T15:26:56;14.70;49.80
28548;DHT22;15750;49.600;8.746;2022-12-07T15:29:25;14.80;49.90
28548;DHT22;15750;49.600;8.746;2022-12-07T15:31:56;14.80;49.90
28548;DHT22;15750;49.600;8.746;2022-12-07T15:34:26;14.80;49.90
28548;DHT22;15750;49.600;8.746;2022-12-07T15:37:06;14.70;49.90
28548;DHT22;15750;49.600;8.746;2022-12-07T15:39:36;14.70;49.80
28548;DHT22;15750;49.600;8.746;2022-12-07T15:42:05;14.70;49.90
28548;DHT22;15750;49.600;8.746;2022-12-07T15:44:35;14.70;49.90
28548;DHT22;15750;49.600;8.746;2022-12-07T15:47:23;14.70;49.90
28548;DHT22;15750;49.600;8.746;2022-12-07T15:49:52;14.70;50.00
28548;DHT22;15750;49.600;8.746;2022-12-07T15:52:23;14.70;49.90
28548;DHT22;15750;49.600;8.746;2022-12-07T15:54:52;14.70;49.90
28548;DHT22;15750;49.600;8.746;2022-12-07T15:57:22;14.70;49.90
28548;DHT22;15750;49.600;8.746;2022-12-07T15:59:52;14.70;49.90
28548;DHT22;15750;49.600;8.746;2022-12-07T16:02:23;14.70;49.90
28548;DHT22;15750;49.600;8.746;2022-12-07T16:04:52;14.70;49.80
28548;DHT22;15750;49.600;8.746;2022-12-07T16:07:22;14.70;49.90
28548;DHT22;15750;49.600;8.746;2022-12-07T16:10:01;14.70;49.80
28548;DHT22;15750;49.600;8.746;2022-12-07T16:12:31;14.70;49.70
28548;DHT22;15750;49.600;8.746;2022-12-07T16:15:00;14.70;49.90
28548;DHT22;15750;49.600;8.746;2022-12-07T16:17:31;14.70;49.80
28548;DHT22;15750;49.600;8.746;2022-12-07T16:20:00;14.70;49.90
28548;DHT22;15750;49.600;8.746;2022-12-07T16:22:29;14.70;49.90
28548;DHT22;15750;49.600;8.746;2022-12-07T16:25:01;14.70;49.90
28548;DHT22;15750;49.600;8.746;2022-12-07T16:27:30;14.70;49.90
28548;DHT22;15750;49.600;8.746;2022-12-07T16:29:59;14.60;49.90
28548;DHT22;15750;49.600;8.746;2022-12-07T16:32:28;14.70;49.80
28548;DHT22;15750;49.600;8.746;2022-12-07T16:34:59;14.70;49.90
28548;DHT22;15750;49.600;8.746;2022-12-07T16:37:28;14.70;49.80
28548;DHT22;15750;49.600;8.746;2022-12-07T16:39:58;14.70;49.70
28548;DHT22;15750;49.600;8.746;2022-12-07T16:42:27;14.60;49.60
28548;DHT22;15750;49.600;8.746;2022-12-07T16:45:00;14.60;49.70
28548;DHT22;15750;49.600;8.746;2022-12-07T16:47:30;14.60;49.70
28548;DHT22;15750;49.600;8.746;2022-12-07T16:50:01;14.70;49.80
28548;DHT22;15750;49.600;8.746;2022-12-07T16:52:30;14.70;49.80
28548;DHT22;15750;49.600;8.746;2022-12-07T16:54:59;14.70;49.90
28548;DHT22;15750;49.600;8.746;2022-12-07T16:57:30;14.70;49.90
28548;DHT22;15750;49.600;8.746;2022-12-07T16:59:59;14.70;50.00
28548;DHT22;15750;49.600;8.746;2022-12-07T17:02:30;14.70;49.90
28548;DHT22;15750;49.600;8.746;2022-12-07T17:05:02;14.60;49.90
28548;DHT22;15750;49.600;8.746;2022-12-07T17:07:32;14.60;49.80
28548;DHT22;15750;49.600;8.746;2022-12-07T17:10:02;14.70;49.90
28548;DHT22;15750;49.600;8.746;2022-12-07T17:12:31;14.70;50.00
28548;DHT22;15750;49.600;8.746;2022-12-07T17:15:00;14.70;49.90
28548;DHT22;15750;49.600;8.746;2022-12-07T17:17:44;14.70;49.90
28548;DHT22;15750;49.600;8.746;2022-12-07T17:20:15;14.70;49.90
28548;DHT22;15750;49.600;8.746;2022-12-07T17:22:45;14.70;49.90
28548;DHT22;15750;49.600;8.746;2022-12-07T17:25:15;14.70;49.90
28548;DHT22;15750;49.600;8.746;2022-12-07T17:27:46;14.70;49.90
28548;DHT22;15750;49.600;8.746;2022-12-07T17:30:15;14.70;49.80
28548;DHT22;15750;49.600;8.746;2022-12-07T17:32:45;14.70;49.70
28548;DHT22;15750;49.600;8.746;2022-12-07T17:35:15;14.70;49.70
28548;DHT22;15750;49.600;8.746;2022-12-07T17:37:44;14.70;49.70
28548;DHT22;15750;49.600;8.746;2022-12-07T17:40:17;14.70;49.80
28548;DHT22;15750;49.600;8.746;2022-12-07T17:42:46;14.70;49.70
28548;DHT22;15750;49.600;8.746;2022-12-07T17:45:23;14.70;49.80
28548;DHT22;15750;49.600;8.746;2022-12-07T17:47:53;14.70;49.70
28548;DHT22;15750;49.600;8.746;2022-12-07T17:50:24;14.70;49.70
28548;DHT22;15750;49.600;8.746;2022-12-07T17:53:10;14.70;49.70
28548;DHT22;15750;49.600;8.746;2022-12-07T17:55:39;14.70;49.70
28548;DHT22;15750;49.600;8.746;2022-12-07T17:58:29;14.70;49.70
28548;DHT22;15750;49.600;8.746;2022-12-07T18:00:58;14.70;49.70
28548;DHT22;15750;49.600;8.746;2022-12-07T18:03:27;14.70;49.90
28548;DHT22;15750;49.600;8.746;2022-12-07T18:05:59;14.70;49.70
28548;DHT22;15750;49.600;8.746;2022-12-07T18:08:28;14.70;49.60
28548;DHT22;15750;49.600;8.746;2022-12-07T18:10:58;14.70;49.60
28548;DHT22;15750;49.600;8.746;2022-12-07T18:13:27;14.70;49.60
28548;DHT22;15750;49.600;8.746;2022-12-07T18:16:08;14.70;49.60
28548;DHT22;15750;49.600;8.746;2022-12-07T18:18:38;14.70;49.60
28548;DHT22;15750;49.600;8.746;2022-12-07T18:21:17;14.70;49.60
28548;DHT22;15750;49.600;8.746;2022-12-07T18:23:49;14.70;49.60
28548;DHT22;15750;49.600;8.746;2022-12-07T18:26:20;14.70;49.60
28548;DHT22;15750;49.600;8.746;2022-12-07T18:28:50;14.70;49.60
28548;DHT22;15750;49.600;8.746;2022-12-07T18:31:19;14.70;49.60
28548;DHT22;15750;49.600;8.746;2022-12-07T18:33:49;14.70;49.60
28548;DHT22;15750;49.600;8.746;2022-12-07T18:36:23;14.70;49.60
28548;DHT22;15750;49.600;8.746;2022-12-07T18:38:52;14.70;49.50
28548;DHT22;15750;49.600;8.746;2022-12-07T18:41:25;14.70;49.50